Time;durP1;ratioP1;P1;durP2;ratioP2;P2;SDS_P1;SDS_P2;PMS_P1;PMS_P2;Temp;Humidity;BMP_temperature;BMP_pressure;BME280_temperature;BME280_humidity;BME280_pressure;Samples;Min_cycle;Max_cycle;Signal;HPM_P1;HPM_P2
2022/12/27 00:02:13;;;;;;;;;;;3.60;99.90;;;;;;5053517;28;19913;-78
2022/12/27 00:04:39;;;;;;;;;;;3.60;99.90;;;;;;5053842;28;20185;-75
2022/12/27 00:07:05;;;;;;;;;;;3.70;99.90;;;;;;5053608;28;19909;-82
2022/12/27 00:09:31;;;;;;;;;;;3.80;99.90;;;;;;5052998;28;20015;-80
2022/12/27 00:11:57;;;;;;;;;;;3.90;99.90;;;;;;5053092;28;20308;-77
2022/12/27 00:14:22;;;;;;;;;;;3.90;99.90;;;;;;5051506;28;20299;-79
2022/12/27 00:16:48;;;;;;;;;;;4.00;99.90;;;;;;5051435;28;19909;-80
2022/12/27 00:19:14;;;;;;;;;;;4.00;99.90;;;;;;5048349;28;19908;-75
2022/12/27 00:21:40;;;;;;;;;;;4.00;99.90;;;;;;5052573;28;19963;-75
2022/12/27 00:24:05;;;;;;;;;;;4.00;99.90;;;;;;5047892;28;20211;-75
2022/12/27 00:26:32;;;;;;;;;;;4.00;99.90;;;;;;5054501;28;19909;-75
2022/12/27 00:28:58;;;;;;;;;;;4.10;99.90;;;;;;5045288;28;19935;-77
2022/12/27 00:31:25;;;;;;;;;;;4.10;99.90;;;;;;5054461;28;19940;-75
2022/12/27 00:33:52;;;;;;;;;;;4.20;99.90;;;;;;5054749;28;20007;-75
2022/12/27 00:36:20;;;;;;;;;;;4.20;99.90;;;;;;5049665;28;19951;-78
2022/12/27 00:38:46;;;;;;;;;;;4.20;99.90;;;;;;5053874;28;19959;-75
2022/12/27 00:41:12;;;;;;;;;;;4.30;99.90;;;;;;5051803;28;19931;-76
2022/12/27 00:43:38;;;;;;;;;;;4.30;99.90;;;;;;5052780;28;20007;-75
2022/12/27 00:46:04;;;;;;;;;;;4.30;99.90;;;;;;5054841;28;20220;-75
2022/12/27 00:48:30;;;;;;;;;;;4.30;99.90;;;;;;5052786;28;19920;-77
2022/12/27 00:51:00;;;;;;;;;;;4.30;99.90;;;;;;5053138;28;20215;-77
2022/12/27 00:53:26;;;;;;;;;;;4.40;99.90;;;;;;5052434;28;20231;-77
2022/12/27 00:55:52;;;;;;;;;;;4.50;99.90;;;;;;5052865;28;19916;-77
2022/12/27 00:58:18;;;;;;;;;;;4.50;99.90;;;;;;5051362;28;19919;-78
2022/12/27 01:00:43;;;;;;;;;;;4.50;99.90;;;;;;5052851;28;19928;-78
2022/12/27 01:03:09;;;;;;;;;;;4.40;99.90;;;;;;5052190;28;19987;-75
2022/12/27 01:05:36;;;;;;;;;;;4.40;99.90;;;;;;5051793;28;20010;-76
2022/12/27 01:08:02;;;;;;;;;;;4.30;99.90;;;;;;5053312;28;19923;-77
2022/12/27 01:10:28;;;;;;;;;;;4.30;99.90;;;;;;5049975;28;19917;-79
2022/12/27 01:12:54;;;;;;;;;;;4.20;99.90;;;;;;5068889;28;19920;-78
2022/12/27 01:15:20;;;;;;;;;;;4.20;99.90;;;;;;5050211;28;20315;-80
2022/12/27 01:17:45;;;;;;;;;;;4.20;99.90;;;;;;5050273;28;19920;-75
2022/12/27 01:20:11;;;;;;;;;;;4.10;99.90;;;;;;5053305;28;19913;-78
2022/12/27 01:22:37;;;;;;;;;;;4.10;99.90;;;;;;5052565;28;20311;-74
2022/12/27 01:25:03;;;;;;;;;;;4.10;99.90;;;;;;5052045;28;19913;-75
2022/12/27 01:27:28;;;;;;;;;;;4.10;99.90;;;;;;5051906;28;19928;-75
2022/12/27 01:29:54;;;;;;;;;;;4.10;99.90;;;;;;5051236;28;19913;-75
2022/12/27 01:32:20;;;;;;;;;;;4.10;99.90;;;;;;5052132;28;19927;-75
2022/12/27 01:34:45;;;;;;;;;;;4.10;99.90;;;;;;5053289;28;20005;-76
2022/12/27 01:37:11;;;;;;;;;;;4.20;99.90;;;;;;5052246;28;19945;-77
2022/12/27 01:39:37;;;;;;;;;;;4.20;99.90;;;;;;5049913;28;19917;-75
2022/12/27 01:44:52;;;;;;;;;;;4.20;99.90;;;;;;5052065;28;19920;-78
2022/12/27 01:47:21;;;;;;;;;;;4.20;99.90;;;;;;5046075;28;19921;-75
2022/12/27 01:49:49;;;;;;;;;;;4.20;99.90;;;;;;5052004;28;19920;-75
2022/12/27 01:52:15;;;;;;;;;;;4.20;99.90;;;;;;5053378;28;19966;-76
2022/12/27 01:54:41;;;;;;;;;;;4.30;99.90;;;;;;5040079;28;19920;-75
2022/12/27 01:57:08;;;;;;;;;;;4.20;99.90;;;;;;5051764;28;20011;-75
2022/12/27 01:59:34;;;;;;;;;;;4.30;99.90;;;;;;5051355;28;19951;-76
2022/12/27 02:02:00;;;;;;;;;;;4.30;99.90;;;;;;5055533;28;19939;-77
2022/12/27 02:04:27;;;;;;;;;;;4.40;99.90;;;;;;5051649;28;20323;-78
2022/12/27 02:06:53;;;;;;;;;;;4.40;99.90;;;;;;5054895;28;19916;-78
2022/12/27 02:09:32;;;;;;;;;;;4.40;99.90;;;;;;5056386;28;19936;-78
2022/12/27 02:12:00;;;;;;;;;;;4.50;99.90;;;;;;5049712;28;19913;-78
2022/12/27 02:14:33;;;;;;;;;;;4.50;99.90;;;;;;5053823;28;19919;-79
2022/12/27 02:17:04;;;;;;;;;;;4.50;99.90;;;;;;5055876;28;19928;-74
2022/12/27 02:19:41;;;;;;;;;;;4.50;99.90;;;;;;5055080;28;20330;-76
2022/12/27 02:22:26;;;;;;;;;;;4.40;99.90;;;;;;5055264;28;19978;-75
2022/12/27 02:25:20;;;;;;;;;;;4.30;99.90;;;;;;5055728;28;19913;-76
2022/12/27 02:28:00;;;;;;;;;;;4.30;99.90;;;;;;5048950;28;19936;-78
2022/12/27 02:30:29;;;;;;;;;;;4.20;99.90;;;;;;5045851;28;19909;-76
2022/12/27 02:33:01;;;;;;;;;;;4.10;99.90;;;;;;5056280;28;20365;-77
2022/12/27 02:35:37;;;;;;;;;;;4.10;99.90;;;;;;5052138;28;19909;-78
2022/12/27 02:38:14;;;;;;;;;;;4.00;99.90;;;;;;5068772;28;19917;-77
2022/12/27 02:55:04;;;;;;;;;;;4.00;99.90;;;;;;5050396;28;19963;-78
2022/12/27 02:57:40;;;;;;;;;;;4.00;99.90;;;;;;5055490;28;19916;-75
2022/12/27 03:05:40;;;;;;;;;;;4.00;99.90;;;;;;5055377;28;19915;-74
2022/12/27 03:08:12;;;;;;;;;;;4.00;99.90;;;;;;5055069;28;19913;-79
2022/12/27 03:16:24;;;;;;;;;;;3.90;99.90;;;;;;5052924;28;19939;-78
2022/12/27 03:19:00;;;;;;;;;;;3.90;99.90;;;;;;5052261;28;20275;-74
2022/12/27 03:27:03;;;;;;;;;;;3.80;99.90;;;;;;5055932;28;19919;-75
2022/12/27 03:35:04;;;;;;;;;;;3.80;99.90;;;;;;5054803;28;20019;-74
2022/12/27 03:40:20;;;;;;;;;;;3.70;99.90;;;;;;5055427;28;20330;-75
2022/12/27 03:48:23;;;;;;;;;;;3.60;99.90;;;;;;5054778;28;19923;-77
2022/12/27 03:51:03;;;;;;;;;;;3.50;99.90;;;;;;5040914;28;19948;-75
2022/12/27 03:53:29;;;;;;;;;;;3.50;99.90;;;;;;5053968;28;19919;-75
2022/12/27 03:55:55;;;;;;;;;;;3.50;99.90;;;;;;5054337;28;20234;-78
2022/12/27 03:58:21;;;;;;;;;;;3.50;99.90;;;;;;5045938;28;20320;-74
2022/12/27 04:00:47;;;;;;;;;;;3.50;99.90;;;;;;5051735;28;19940;-77
2022/12/27 04:03:13;;;;;;;;;;;3.50;99.90;;;;;;5052638;28;19912;-78
2022/12/27 04:05:38;;;;;;;;;;;3.50;99.90;;;;;;5051337;28;19935;-74
2022/12/27 04:35:26;;;;;;;;;;;3.20;99.90;;;;;;5052119;28;19923;-75
2022/12/27 04:37:52;;;;;;;;;;;3.20;99.90;;;;;;5052974;28;19909;-75
2022/12/27 04:56:43;;;;;;;;;;;3.20;99.90;;;;;;5036651;28;19987;-74
2022/12/27 05:02:02;;;;;;;;;;;3.20;99.90;;;;;;5043973;28;20370;-79
2022/12/27 05:04:29;;;;;;;;;;;3.20;99.90;;;;;;5036531;28;20011;-74
2022/12/27 05:06:55;;;;;;;;;;;3.20;99.90;;;;;;5037774;28;19924;-77
2022/12/27 05:14:49;;;;;;;;;;;3.20;99.90;;;;;;5041897;28;19923;-78
2022/12/27 05:17:15;;;;;;;;;;;3.10;99.90;;;;;;5038238;28;20313;-74
2022/12/27 05:19:40;;;;;;;;;;;3.10;99.90;;;;;;5053802;28;19996;-75
2022/12/27 05:27:35;;;;;;;;;;;3.20;99.90;;;;;;5051776;28;20516;-74
2022/12/27 05:30:00;;;;;;;;;;;3.30;99.90;;;;;;5053065;28;20004;-75
2022/12/27 05:32:26;;;;;;;;;;;3.30;99.90;;;;;;5051350;28;19975;-75
2022/12/27 05:34:52;;;;;;;;;;;3.30;99.90;;;;;;5053805;28;19917;-75
2022/12/27 05:37:17;;;;;;;;;;;3.20;99.90;;;;;;5056759;28;19923;-78
2022/12/27 05:39:43;;;;;;;;;;;3.20;99.90;;;;;;5056638;28;19915;-78
2022/12/27 05:42:09;;;;;;;;;;;3.20;99.90;;;;;;5057129;28;19966;-75
2022/12/27 05:44:34;;;;;;;;;;;3.20;99.90;;;;;;5055546;28;19913;-78
2022/12/27 05:47:00;;;;;;;;;;;3.10;99.90;;;;;;5052642;28;20296;-78
2022/12/27 05:49:26;;;;;;;;;;;3.00;99.90;;;;;;5055686;28;19909;-79
2022/12/27 05:51:52;;;;;;;;;;;3.00;99.90;;;;;;5050615;28;19917;-80
2022/12/27 05:54:17;;;;;;;;;;;3.00;99.90;;;;;;5051395;28;19925;-74
2022/12/27 05:56:43;;;;;;;;;;;3.10;99.90;;;;;;5052148;28;19913;-78
2022/12/27 05:59:08;;;;;;;;;;;3.00;99.90;;;;;;5050585;28;19931;-79
2022/12/27 06:01:34;;;;;;;;;;;3.00;99.90;;;;;;5056257;28;20200;-74
2022/12/27 06:04:00;;;;;;;;;;;3.00;99.90;;;;;;5051168;28;20223;-76
2022/12/27 06:06:25;;;;;;;;;;;3.00;99.90;;;;;;5057381;28;19912;-75
2022/12/27 06:08:51;;;;;;;;;;;2.90;99.90;;;;;;5054197;28;19945;-76
2022/12/27 06:11:18;;;;;;;;;;;2.90;99.90;;;;;;5055921;28;19917;-80
2022/12/27 06:13:47;;;;;;;;;;;2.90;99.90;;;;;;5052108;28;19913;-78
2022/12/27 06:16:13;;;;;;;;;;;2.90;99.90;;;;;;5057011;28;19952;-79
2022/12/27 06:18:39;;;;;;;;;;;2.90;99.90;;;;;;5050269;28;19978;-78
2022/12/27 06:21:06;;;;;;;;;;;2.90;99.90;;;;;;5053052;28;20012;-74
2022/12/27 06:23:36;;;;;;;;;;;2.90;99.90;;;;;;5055245;28;19956;-79
2022/12/27 06:26:05;;;;;;;;;;;2.90;99.90;;;;;;5055767;28;19959;-79
2022/12/27 06:28:31;;;;;;;;;;;2.90;99.90;;;;;;5054773;28;19960;-74
2022/12/27 06:30:58;;;;;;;;;;;3.00;99.90;;;;;;5047437;28;19944;-75
2022/12/27 06:33:24;;;;;;;;;;;3.00;99.90;;;;;;5038665;28;19944;-80
2022/12/27 06:35:49;;;;;;;;;;;3.00;99.90;;;;;;5050686;28;19956;-78
2022/12/27 06:38:15;;;;;;;;;;;3.00;99.90;;;;;;5043382;28;19920;-80
2022/12/27 06:40:41;;;;;;;;;;;3.00;99.90;;;;;;5055295;28;20371;-79
2022/12/27 06:43:07;;;;;;;;;;;3.10;99.90;;;;;;5046054;28;19924;-74
2022/12/27 06:45:32;;;;;;;;;;;3.10;99.90;;;;;;5051778;28;19916;-78
2022/12/27 06:47:58;;;;;;;;;;;3.10;99.90;;;;;;5056796;28;19919;-78
2022/12/27 06:50:24;;;;;;;;;;;3.10;99.90;;;;;;5055243;28;19955;-79
2022/12/27 06:52:49;;;;;;;;;;;3.20;99.90;;;;;;5055175;28;20315;-77
2022/12/27 06:55:15;;;;;;;;;;;3.10;99.90;;;;;;5050609;28;19916;-79
2022/12/27 06:57:40;;;;;;;;;;;3.20;99.90;;;;;;5053524;28;19938;-75
2022/12/27 07:00:06;;;;;;;;;;;3.20;99.90;;;;;;5050406;28;20002;-79
2022/12/27 07:02:32;;;;;;;;;;;3.10;99.90;;;;;;5054413;28;19913;-78
2022/12/27 07:04:58;;;;;;;;;;;3.10;99.90;;;;;;5051726;28;20264;-78
2022/12/27 07:07:24;;;;;;;;;;;3.10;99.90;;;;;;5053424;28;19924;-74
2022/12/27 07:09:49;;;;;;;;;;;3.00;99.90;;;;;;5050390;28;19999;-75
2022/12/27 07:12:15;;;;;;;;;;;2.90;99.90;;;;;;5046057;28;19920;-79
2022/12/27 07:14:41;;;;;;;;;;;2.90;99.90;;;;;;5051553;28;19909;-75
2022/12/27 07:17:06;;;;;;;;;;;2.90;99.90;;;;;;5066867;28;19921;-80
2022/12/27 07:19:32;;;;;;;;;;;2.90;99.90;;;;;;5055504;28;19917;-76
2022/12/27 07:21:58;;;;;;;;;;;2.80;99.90;;;;;;5052701;28;20238;-79
2022/12/27 07:24:24;;;;;;;;;;;2.80;99.90;;;;;;5054568;28;20011;-79
2022/12/27 07:26:49;;;;;;;;;;;2.90;99.90;;;;;;5053217;28;20007;-80
2022/12/27 07:29:15;;;;;;;;;;;2.90;99.90;;;;;;5036533;28;19971;-79
2022/12/27 07:31:41;;;;;;;;;;;2.90;99.90;;;;;;5054677;28;20351;-75
2022/12/27 07:34:06;;;;;;;;;;;2.90;99.90;;;;;;5053575;28;20322;-75
2022/12/27 07:36:34;;;;;;;;;;;3.00;99.90;;;;;;5054495;28;19949;-75
2022/12/27 07:39:00;;;;;;;;;;;3.00;99.90;;;;;;5052330;28;19963;-75
2022/12/27 07:41:26;;;;;;;;;;;3.10;99.90;;;;;;5053074;28;19925;-80
2022/12/27 07:43:52;;;;;;;;;;;3.10;99.90;;;;;;5052813;28;19939;-76
2022/12/27 07:46:22;;;;;;;;;;;3.10;99.90;;;;;;5051137;28;19917;-78
2022/12/27 07:48:48;;;;;;;;;;;3.10;99.90;;;;;;5040716;28;19928;-81
2022/12/27 07:51:14;;;;;;;;;;;3.10;99.90;;;;;;5051253;28;20220;-78
2022/12/27 07:53:40;;;;;;;;;;;3.20;99.90;;;;;;5047174;28;19922;-76
2022/12/27 07:56:10;;;;;;;;;;;3.20;99.90;;;;;;5049163;28;19919;-79
2022/12/27 07:58:37;;;;;;;;;;;3.30;99.90;;;;;;5053961;28;19912;-75
2022/12/27 08:01:03;;;;;;;;;;;3.30;99.90;;;;;;5053306;28;19962;-75
2022/12/27 08:03:30;;;;;;;;;;;3.30;99.90;;;;;;5052895;28;19913;-75
2022/12/27 08:05:55;;;;;;;;;;;3.40;99.90;;;;;;5052820;28;19958;-80
2022/12/27 08:08:22;;;;;;;;;;;3.40;99.90;;;;;;5051926;28;19920;-75
2022/12/27 08:10:48;;;;;;;;;;;3.40;99.90;;;;;;5047863;28;20063;-80
2022/12/27 08:13:13;;;;;;;;;;;3.40;99.90;;;;;;5040847;28;20343;-80
2022/12/27 08:15:40;;;;;;;;;;;3.40;99.90;;;;;;5047702;28;20235;-79
2022/12/27 08:18:06;;;;;;;;;;;3.50;99.90;;;;;;5050698;28;19921;-79
2022/12/27 08:20:32;;;;;;;;;;;3.40;99.90;;;;;;5049465;28;19923;-75
2022/12/27 08:22:57;;;;;;;;;;;3.50;99.90;;;;;;5051363;28;20262;-79
2022/12/27 08:25:23;;;;;;;;;;;3.50;99.90;;;;;;5052290;28;19949;-80
2022/12/27 08:27:49;;;;;;;;;;;3.50;99.90;;;;;;5053775;28;20236;-80
2022/12/27 08:30:14;;;;;;;;;;;3.50;99.90;;;;;;5050765;28;19912;-77
2022/12/27 08:32:40;;;;;;;;;;;3.50;99.90;;;;;;5060151;28;19967;-74
2022/12/27 08:35:06;;;;;;;;;;;3.50;99.90;;;;;;5042907;28;19913;-74
2022/12/27 08:37:32;;;;;;;;;;;3.50;99.90;;;;;;5032905;28;19923;-76
2022/12/27 08:39:57;;;;;;;;;;;3.50;99.90;;;;;;5049138;28;19951;-75
2022/12/27 08:42:23;;;;;;;;;;;3.50;99.90;;;;;;5053131;28;19960;-79
2022/12/27 08:44:49;;;;;;;;;;;3.50;99.90;;;;;;5047008;28;19920;-74
2022/12/27 08:47:15;;;;;;;;;;;3.60;99.90;;;;;;5052481;28;19935;-75
2022/12/27 08:49:40;;;;;;;;;;;3.60;99.90;;;;;;5052411;28;19927;-74
2022/12/27 08:52:06;;;;;;;;;;;3.60;99.90;;;;;;5051961;28;19927;-74
2022/12/27 08:54:32;;;;;;;;;;;3.60;99.90;;;;;;5052331;28;19917;-77
2022/12/27 08:56:57;;;;;;;;;;;3.70;99.90;;;;;;5054356;28;19919;-79
2022/12/27 08:59:23;;;;;;;;;;;3.70;99.90;;;;;;5051875;28;19913;-74
2022/12/27 09:01:49;;;;;;;;;;;3.70;99.90;;;;;;5053258;28;19920;-80
2022/12/27 09:04:14;;;;;;;;;;;3.80;99.90;;;;;;5052538;28;19913;-79
2022/12/27 09:06:41;;;;;;;;;;;3.80;99.90;;;;;;5054372;28;20227;-74
2022/12/27 09:09:06;;;;;;;;;;;3.80;99.90;;;;;;5054040;28;20196;-79
2022/12/27 09:11:33;;;;;;;;;;;3.90;99.90;;;;;;5056701;28;20031;-78
2022/12/27 09:14:00;;;;;;;;;;;3.90;99.90;;;;;;5057592;28;19912;-83
2022/12/27 09:16:29;;;;;;;;;;;4.00;99.90;;;;;;5046167;28;20284;-80
2022/12/27 09:18:55;;;;;;;;;;;4.00;99.90;;;;;;5048625;28;19983;-81
2022/12/27 09:21:22;;;;;;;;;;;4.00;99.90;;;;;;5055312;28;20185;-75
2022/12/27 09:23:48;;;;;;;;;;;4.10;99.90;;;;;;5052162;28;20004;-79
2022/12/27 09:26:15;;;;;;;;;;;4.10;99.90;;;;;;5050851;28;20355;-74
2022/12/27 09:28:41;;;;;;;;;;;4.10;99.90;;;;;;5055273;28;20359;-74
2022/12/27 09:31:07;;;;;;;;;;;4.10;99.90;;;;;;5055278;28;19919;-75
2022/12/27 09:33:33;;;;;;;;;;;4.10;99.90;;;;;;5056270;28;20003;-76
2022/12/27 09:36:19;;;;;;;;;;;4.20;99.90;;;;;;5048312;28;19999;-81
2022/12/27 09:38:45;;;;;;;;;;;4.20;99.90;;;;;;5044061;28;19913;-81
2022/12/27 09:41:31;;;;;;;;;;;4.20;99.90;;;;;;5056984;28;20286;-75
2022/12/27 09:43:56;;;;;;;;;;;4.30;99.90;;;;;;5053655;28;20300;-80
2022/12/27 09:46:42;;;;;;;;;;;4.30;99.90;;;;;;5064161;28;19920;-74
2022/12/27 09:49:13;;;;;;;;;;;4.30;99.90;;;;;;5052280;28;20011;-80
2022/12/27 09:51:51;;;;;;;;;;;4.40;99.90;;;;;;5055488;28;19913;-75
2022/12/27 09:54:28;;;;;;;;;;;4.40;99.90;;;;;;5055952;28;19940;-79
2022/12/27 09:56:54;;;;;;;;;;;4.50;99.90;;;;;;5051022;28;19908;-75
2022/12/27 09:59:29;;;;;;;;;;;4.50;99.90;;;;;;5056425;28;19920;-76
2022/12/27 10:01:55;;;;;;;;;;;4.60;99.90;;;;;;5055851;28;19921;-84
2022/12/27 10:04:21;;;;;;;;;;;4.70;99.90;;;;;;5056579;28;19919;-76
2022/12/27 10:06:47;;;;;;;;;;;4.70;99.90;;;;;;5057613;28;20019;-80
2022/12/27 10:09:18;;;;;;;;;;;4.80;99.90;;;;;;5047059;28;20007;-80
2022/12/27 10:11:44;;;;;;;;;;;4.80;99.90;;;;;;5044904;28;19920;-81
2022/12/27 10:14:12;;;;;;;;;;;4.80;99.90;;;;;;5039939;28;20000;-82
2022/12/27 10:16:44;;;;;;;;;;;4.80;99.90;;;;;;5056094;28;19913;-80
2022/12/27 10:19:32;;;;;;;;;;;4.80;99.90;;;;;;5052240;28;19921;-80
2022/12/27 10:22:08;;;;;;;;;;;4.80;99.90;;;;;;5056516;28;19963;-76
2022/12/27 10:24:46;;;;;;;;;;;4.90;99.90;;;;;;5052449;28;19995;-75
2022/12/27 10:27:13;;;;;;;;;;;4.90;99.90;;;;;;5054779;28;19920;-79
2022/12/27 10:29:39;;;;;;;;;;;5.00;99.90;;;;;;5052238;28;19921;-77
2022/12/27 10:32:07;;;;;;;;;;;5.00;99.90;;;;;;5053830;28;20299;-83
2022/12/27 10:34:33;;;;;;;;;;;5.10;99.90;;;;;;5053613;28;19917;-78
2022/12/27 10:36:59;;;;;;;;;;;5.20;99.90;;;;;;5053286;28;19913;-76
2022/12/27 10:39:26;;;;;;;;;;;5.20;99.90;;;;;;5055682;28;19916;-75
2022/12/27 10:42:10;;;;;;;;;;;5.30;99.90;;;;;;5052728;28;19968;-75
2022/12/27 10:44:36;;;;;;;;;;;5.40;99.90;;;;;;5044588;28;19951;-75
2022/12/27 10:47:02;;;;;;;;;;;5.50;99.90;;;;;;5047461;28;19940;-76
2022/12/27 10:49:29;;;;;;;;;;;5.50;99.90;;;;;;5046835;28;20357;-78
2022/12/27 10:51:56;;;;;;;;;;;5.50;99.90;;;;;;5050995;28;19974;-75
2022/12/27 10:54:26;;;;;;;;;;;5.50;99.90;;;;;;5051039;28;20182;-77
2022/12/27 10:56:52;;;;;;;;;;;5.60;99.90;;;;;;5051760;28;19940;-75
2022/12/27 10:59:19;;;;;;;;;;;5.60;99.90;;;;;;5032669;28;19948;-76
2022/12/27 11:02:05;;;;;;;;;;;5.50;99.90;;;;;;5047687;28;19917;-76
2022/12/27 11:04:31;;;;;;;;;;;5.50;99.90;;;;;;5051574;28;19919;-76
2022/12/27 11:07:03;;;;;;;;;;;5.60;99.90;;;;;;5049713;28;19913;-76
2022/12/27 11:09:38;;;;;;;;;;;5.80;99.90;;;;;;5048332;28;19923;-79
2022/12/27 11:12:16;;;;;;;;;;;5.90;99.90;;;;;;5052470;28;19913;-81
2022/12/27 11:14:59;;;;;;;;;;;6.00;99.90;;;;;;5048353;28;19968;-76
2022/12/27 11:17:27;;;;;;;;;;;6.20;99.90;;;;;;5050520;28;20303;-75
2022/12/27 11:19:53;;;;;;;;;;;6.20;99.90;;;;;;5051716;28;19917;-75
2022/12/27 11:22:19;;;;;;;;;;;6.20;99.90;;;;;;5051163;28;19951;-81
2022/12/27 11:24:47;;;;;;;;;;;6.30;99.90;;;;;;5051782;28;19917;-82
2022/12/27 11:27:21;;;;;;;;;;;6.30;99.90;;;;;;5052929;28;19917;-81
2022/12/27 11:29:47;;;;;;;;;;;6.30;99.90;;;;;;5052363;28;19962;-81
2022/12/27 11:32:13;;;;;;;;;;;6.30;99.90;;;;;;5049440;28;19921;-76
2022/12/27 11:34:42;;;;;;;;;;;6.30;99.90;;;;;;5054043;28;19967;-79
2022/12/27 11:37:13;;;;;;;;;;;6.30;99.90;;;;;;5068101;28;19912;-76
2022/12/27 11:39:43;;;;;;;;;;;6.30;99.90;;;;;;5053253;28;19919;-74
2022/12/27 11:42:15;;;;;;;;;;;6.30;99.90;;;;;;5051334;28;19929;-76
2022/12/27 11:44:42;;;;;;;;;;;6.30;99.90;;;;;;5045923;28;19921;-77
2022/12/27 11:47:18;;;;;;;;;;;6.20;99.90;;;;;;5044386;28;19928;-81
2022/12/27 11:50:01;;;;;;;;;;;6.20;99.90;;;;;;5050553;28;20327;-80
2022/12/27 11:52:44;;;;;;;;;;;6.20;99.90;;;;;;5050538;28;19925;-76
2022/12/27 11:55:10;;;;;;;;;;;6.30;99.90;;;;;;5045353;28;20338;-78
2022/12/27 11:57:45;;;;;;;;;;;6.30;99.90;;;;;;5044440;28;19921;-76
2022/12/27 12:00:21;;;;;;;;;;;6.30;99.90;;;;;;5051195;28;19917;-76
2022/12/27 12:02:55;;;;;;;;;;;6.30;99.90;;;;;;5052887;28;19917;-76
2022/12/27 12:05:24;;;;;;;;;;;6.30;99.90;;;;;;5050287;28;19913;-81
2022/12/27 12:08:01;;;;;;;;;;;6.40;99.90;;;;;;5049625;28;19925;-82
2022/12/27 12:10:27;;;;;;;;;;;6.40;99.90;;;;;;5045015;28;20043;-80
2022/12/27 12:13:15;;;;;;;;;;;6.40;99.90;;;;;;5048746;28;20023;-80
2022/12/27 12:15:59;;;;;;;;;;;6.50;99.90;;;;;;5048609;28;19921;-77
2022/12/27 12:18:40;;;;;;;;;;;6.50;99.90;;;;;;5053351;28;19917;-79
2022/12/27 12:21:11;;;;;;;;;;;6.60;99.90;;;;;;5046957;28;19982;-77
2022/12/27 12:23:37;;;;;;;;;;;6.60;99.90;;;;;;5047345;28;19917;-76
2022/12/27 12:26:03;;;;;;;;;;;6.60;99.90;;;;;;5049564;28;20008;-81
2022/12/27 12:28:37;;;;;;;;;;;6.70;99.90;;;;;;5051113;28;20234;-77
2022/12/27 12:31:14;;;;;;;;;;;6.70;99.90;;;;;;5052574;28;19932;-83
2022/12/27 12:33:42;;;;;;;;;;;6.70;99.90;;;;;;5051071;28;19966;-75
2022/12/27 12:36:15;;;;;;;;;;;6.70;99.90;;;;;;5051617;28;19909;-81
2022/12/27 12:38:47;;;;;;;;;;;6.70;99.90;;;;;;5051573;28;20321;-75
2022/12/27 12:41:13;;;;;;;;;;;6.70;99.90;;;;;;5049679;28;19925;-76
2022/12/27 12:43:50;;;;;;;;;;;6.70;99.90;;;;;;5047368;28;19917;-81
2022/12/27 12:46:19;;;;;;;;;;;6.80;99.90;;;;;;5048010;28;19917;-76
2022/12/27 12:49:03;;;;;;;;;;;6.70;99.90;;;;;;5067167;28;19966;-76
2022/12/27 12:51:38;;;;;;;;;;;6.70;99.90;;;;;;5068540;28;19920;-81
2022/12/27 12:54:29;;;;;;;;;;;6.70;99.90;;;;;;5047920;28;19948;-80
2022/12/27 12:57:14;;;;;;;;;;;6.70;99.90;;;;;;4997266;28;20428;-77
2022/12/27 13:00:00;;;;;;;;;;;6.60;99.90;;;;;;5045160;28;21475;-77
2022/12/27 13:02:45;;;;;;;;;;;6.60;99.90;;;;;;5046263;28;19928;-76
2022/12/27 13:05:17;;;;;;;;;;;6.60;99.90;;;;;;5049188;28;19936;-77
2022/12/27 13:07:45;;;;;;;;;;;6.60;99.90;;;;;;5052402;28;19921;-79
2022/12/27 13:10:26;;;;;;;;;;;6.60;99.90;;;;;;5049356;28;19927;-78
2022/12/27 13:13:00;;;;;;;;;;;6.60;99.90;;;;;;5048742;28;19986;-77
2022/12/27 13:15:32;;;;;;;;;;;6.60;99.90;;;;;;5054704;28;19909;-77
2022/12/27 13:18:07;;;;;;;;;;;6.60;99.90;;;;;;5050085;28;19923;-79
2022/12/27 13:20:39;;;;;;;;;;;6.60;99.90;;;;;;5046738;28;19960;-77
2022/12/27 13:23:16;;;;;;;;;;;6.60;99.90;;;;;;5051035;28;20007;-80
2022/12/27 13:26:05;;;;;;;;;;;6.60;99.90;;;;;;5052747;28;19921;-76
2022/12/27 13:28:49;;;;;;;;;;;6.70;99.90;;;;;;5047856;28;19921;-79
2022/12/27 13:31:27;;;;;;;;;;;6.70;99.90;;;;;;5053375;28;20181;-76
2022/12/27 13:34:00;;;;;;;;;;;6.80;99.90;;;;;;5053173;28;20014;-77
2022/12/27 13:36:44;;;;;;;;;;;6.80;99.90;;;;;;5042974;28;19932;-77
2022/12/27 13:39:30;;;;;;;;;;;6.80;99.90;;;;;;5052543;28;19913;-78
2022/12/27 13:42:16;;;;;;;;;;;6.90;99.90;;;;;;5041148;28;19964;-79
2022/12/27 13:44:44;;;;;;;;;;;6.90;99.90;;;;;;5012111;28;19913;-77
2022/12/27 13:47:29;;;;;;;;;;;6.90;99.90;;;;;;5047256;28;19917;-81
2022/12/27 13:50:13;;;;;;;;;;;6.90;99.90;;;;;;5052936;28;19931;-81
2022/12/27 13:52:44;;;;;;;;;;;6.90;99.90;;;;;;5047551;28;19917;-77
2022/12/27 13:55:14;;;;;;;;;;;6.90;99.90;;;;;;5053123;28;19921;-79
2022/12/27 13:58:00;;;;;;;;;;;6.90;99.90;;;;;;5057423;28;19913;-79
2022/12/27 14:00:45;;;;;;;;;;;7.00;99.90;;;;;;5023714;28;19913;-77
2022/12/27 14:03:13;;;;;;;;;;;7.00;99.90;;;;;;5048034;28;19913;-77
2022/12/27 14:05:59;;;;;;;;;;;7.00;99.90;;;;;;5055612;28;20350;-79
2022/12/27 14:08:25;;;;;;;;;;;6.90;99.90;;;;;;5053051;28;19913;-81
2022/12/27 14:10:51;;;;;;;;;;;6.90;99.90;;;;;;5054892;28;19913;-78
2022/12/27 14:13:20;;;;;;;;;;;6.90;99.90;;;;;;5055346;28;19990;-81
2022/12/27 14:16:04;;;;;;;;;;;6.90;99.90;;;;;;5055410;28;19936;-81
2022/12/27 14:18:29;;;;;;;;;;;6.80;99.90;;;;;;5047460;28;20008;-78
2022/12/27 14:20:55;;;;;;;;;;;6.80;99.90;;;;;;5053625;28;20268;-79
2022/12/27 14:23:36;;;;;;;;;;;6.80;99.90;;;;;;5048934;28;19966;-80
2022/12/27 14:26:34;;;;;;;;;;;6.80;99.90;;;;;;5053172;28;19913;-78
2022/12/27 14:29:05;;;;;;;;;;;6.80;99.90;;;;;;5008589;28;19928;-76
2022/12/27 14:31:34;;;;;;;;;;;6.80;99.90;;;;;;5044389;28;19917;-80
2022/12/27 14:34:18;;;;;;;;;;;6.80;99.90;;;;;;5067246;28;20422;-80
2022/12/27 14:36:56;;;;;;;;;;;6.70;99.90;;;;;;5054075;28;20008;-75
2022/12/27 14:39:34;;;;;;;;;;;6.70;99.90;;;;;;5051839;28;19909;-80
2022/12/27 14:42:18;;;;;;;;;;;6.70;99.90;;;;;;5054106;28;19924;-85
2022/12/27 14:45:02;;;;;;;;;;;6.60;99.90;;;;;;5051818;28;20331;-76
2022/12/27 14:47:28;;;;;;;;;;;6.60;99.90;;;;;;5047611;28;19919;-79
2022/12/27 14:50:00;;;;;;;;;;;6.60;99.90;;;;;;5047942;28;19912;-79
2022/12/27 14:52:36;;;;;;;;;;;6.60;99.90;;;;;;5053342;28;19908;-78
2022/12/27 14:55:20;;;;;;;;;;;6.60;99.90;;;;;;5053292;28;19939;-76
2022/12/27 14:58:06;;;;;;;;;;;6.50;99.90;;;;;;5047407;28;19919;-76
2022/12/27 15:00:45;;;;;;;;;;;6.50;99.90;;;;;;5006225;28;19920;-77
2022/12/27 15:03:32;;;;;;;;;;;6.50;99.90;;;;;;5046431;28;19912;-77
2022/12/27 15:06:16;;;;;;;;;;;6.50;99.90;;;;;;5043697;28;19927;-76
2022/12/27 15:08:48;;;;;;;;;;;6.50;99.90;;;;;;5044051;28;20007;-77
2022/12/27 15:11:32;;;;;;;;;;;6.40;99.90;;;;;;5043743;28;19924;-79
2022/12/27 15:14:16;;;;;;;;;;;6.40;99.90;;;;;;5043696;28;19917;-80
2022/12/27 15:17:00;;;;;;;;;;;6.40;99.90;;;;;;5050187;28;19914;-77
2022/12/27 15:19:26;;;;;;;;;;;6.30;99.90;;;;;;5046021;28;19959;-79
2022/12/27 15:21:55;;;;;;;;;;;6.30;99.90;;;;;;5048010;28;19913;-79
2022/12/27 15:24:27;;;;;;;;;;;6.30;99.90;;;;;;5060794;28;20015;-80
2022/12/27 15:27:02;;;;;;;;;;;6.20;99.90;;;;;;5060856;28;19921;-79
2022/12/27 15:29:39;;;;;;;;;;;6.20;99.90;;;;;;5042956;28;19921;-78
2022/12/27 15:32:05;;;;;;;;;;;6.20;99.90;;;;;;5069482;28;19909;-78
2022/12/27 15:34:42;;;;;;;;;;;6.20;99.90;;;;;;5053808;28;19966;-78
2022/12/27 15:37:27;;;;;;;;;;;6.20;99.90;;;;;;5054158;28;19908;-79
2022/12/27 15:39:53;;;;;;;;;;;6.20;99.90;;;;;;5051175;28;20367;-80
2022/12/27 15:42:32;;;;;;;;;;;6.20;99.90;;;;;;5065451;28;20007;-77
2022/12/27 15:45:00;;;;;;;;;;;6.20;99.90;;;;;;5049557;28;19956;-79
2022/12/27 15:47:29;;;;;;;;;;;6.20;99.90;;;;;;5048934;28;19913;-78
2022/12/27 15:50:07;;;;;;;;;;;6.20;99.90;;;;;;5050424;28;20011;-77
2022/12/27 15:52:42;;;;;;;;;;;6.20;99.90;;;;;;5049258;28;20020;-78
2022/12/27 15:55:13;;;;;;;;;;;6.20;99.90;;;;;;5052288;28;19924;-77
2022/12/27 15:57:58;;;;;;;;;;;6.20;99.90;;;;;;5047561;28;20319;-79
2022/12/27 16:00:23;;;;;;;;;;;6.20;99.90;;;;;;5052386;28;20223;-78
2022/12/27 16:02:50;;;;;;;;;;;6.20;99.90;;;;;;5048748;28;20008;-78
2022/12/27 16:05:19;;;;;;;;;;;6.10;99.90;;;;;;5054691;28;19909;-77
2022/12/27 16:07:46;;;;;;;;;;;6.10;99.90;;;;;;5053655;28;19913;-77
2022/12/27 16:10:24;;;;;;;;;;;6.10;99.90;;;;;;5047536;28;19945;-77
2022/12/27 16:12:50;;;;;;;;;;;6.20;99.90;;;;;;5053530;28;20292;-78
2022/12/27 16:15:34;;;;;;;;;;;6.10;99.90;;;;;;5051852;28;19923;-81
2022/12/27 16:18:01;;;;;;;;;;;6.10;99.90;;;;;;5050133;28;19913;-78
2022/12/27 16:20:27;;;;;;;;;;;6.20;99.90;;;;;;5052772;28;19962;-78
2022/12/27 16:22:55;;;;;;;;;;;6.20;99.90;;;;;;5051200;28;19916;-78
2022/12/27 16:25:22;;;;;;;;;;;6.10;99.90;;;;;;5053000;28;20203;-77
2022/12/27 16:27:55;;;;;;;;;;;6.10;99.90;;;;;;5052322;28;19921;-78
2022/12/27 16:30:39;;;;;;;;;;;6.10;99.90;;;;;;5053195;28;19999;-78
2022/12/27 16:33:06;;;;;;;;;;;6.10;99.90;;;;;;5065280;28;19929;-77
2022/12/27 16:35:32;;;;;;;;;;;6.10;99.90;;;;;;5051178;28;19916;-77